Gregory, Michigan
Current Conditions -  °F | °C
As of 4:14 PM on Monday 24 Nov 2014 (Local Time) from KOZW Reporting Station
Overcast Overcast  
Wind Chill: 25°   Ceiling: 2000
Heat Index: 37°   Visibility: 10mi
Dew Point: 32°   Wind: 24mph
Humidity: 81%   Direction: 220°SW
Pressure: 29.38"   Gusts: 40mph
Location:  42.46°N, 84.08°W
Report Text: KOZW 242114Z AUTO 22021G35KT 10SM OVC020 03/00 A2938 RMK AO2 T00271002
Loading
Personal Weather Stations






























Interactive Weather Map New forecast layout! Learn more

10-Day Weather Forecast

Advertisements
Track Severe Weather on mobile